Time;durP1;ratioP1;P1;durP2;ratioP2;P2;SDS_P1;SDS_P2;PMS_P1;PMS_P2;Temp;Humidity;BMP_temperature;BMP_pressure;BME280_temperature;BME280_humidity;BME280_pressure;Samples;Min_cycle;Max_cycle;Signal;HPM_P1;HPM_P2
2022/06/27 06:18:01;;;;;;;1.67;0.30;;;;;;;;;;4893331;29;20041;-61
2022/06/27 06:20:28;;;;;;;1.20;0.30;;;;;;;;;;4882134;29;20045;-61
2022/06/27 06:22:55;;;;;;;0.75;0.25;;;;;;;;;;4896284;29;20066;-61
2022/06/27 06:25:21;;;;;;;0.43;0.20;;;;;;;;;;4896424;29;20035;-61
2022/06/27 06:27:47;;;;;;;0.30;0.20;;;;;;;;;;4895221;29;20029;-60
2022/06/27 06:30:15;;;;;;;0.50;0.10;;;;;;;;;;4885863;29;20389;-61
2022/06/27 06:32:42;;;;;;;0.22;0.22;;;;;;;;;;4882393;29;20109;-61
2022/06/27 06:35:09;;;;;;;1.17;0.30;;;;;;;;;;4894620;29;20024;-61
2022/06/27 06:37:39;;;;;;;2.17;0.20;;;;;;;;;;4889086;29;20536;-61
2022/06/27 06:40:06;;;;;;;1.33;0.30;;;;;;;;;;4885837;29;20445;-60
2022/06/27 06:42:34;;;;;;;3.08;0.22;;;;;;;;;;4884301;29;20045;-61
2022/06/27 06:45:01;;;;;;;1.27;0.22;;;;;;;;;;4893968;29;20035;-61
2022/06/27 06:47:27;;;;;;;0.32;0.10;;;;;;;;;;4890752;29;20035;-61
2022/06/27 06:49:54;;;;;;;1.55;0.25;;;;;;;;;;4886018;29;20096;-61
2022/06/27 06:52:20;;;;;;;0.95;0.20;;;;;;;;;;4891445;29;20036;-61
2022/06/27 06:54:48;;;;;;;0.32;0.20;;;;;;;;;;4898275;29;21474;-61
2022/06/27 06:57:14;;;;;;;0.85;0.20;;;;;;;;;;4888115;29;20627;-61
2022/06/27 06:59:41;;;;;;;1.50;0.38;;;;;;;;;;4882081;29;20039;-61
2022/06/27 07:02:08;;;;;;;2.15;0.38;;;;;;;;;;4886116;29;20128;-61
2022/06/27 07:04:36;;;;;;;1.33;0.20;;;;;;;;;;4892317;29;20035;-61
2022/06/27 07:07:02;;;;;;;1.23;0.30;;;;;;;;;;4891703;29;20537;-60
2022/06/27 07:09:29;;;;;;;1.80;0.30;;;;;;;;;;4881440;29;20043;-61
2022/06/27 07:11:55;;;;;;;1.95;0.40;;;;;;;;;;4897281;29;20032;-60
2022/06/27 07:14:23;;;;;;;5.28;0.40;;;;;;;;;;4887995;29;20020;-61
2022/06/27 07:16:50;;;;;;;1.08;0.30;;;;;;;;;;4904389;29;20452;-61
2022/06/27 07:19:17;;;;;;;0.47;0.30;;;;;;;;;;4929464;29;20035;-61
2022/06/27 07:21:43;;;;;;;0.20;0.20;;;;;;;;;;4927399;29;20036;-61
2022/06/27 07:24:09;;;;;;;3.38;0.40;;;;;;;;;;4928183;29;20020;-61
2022/06/27 07:26:36;;;;;;;2.88;0.32;;;;;;;;;;4932418;29;20027;-61
2022/06/27 07:29:05;;;;;;;2.55;0.30;;;;;;;;;;4939018;29;20035;-61
2022/06/27 07:31:34;;;;;;;0.50;0.30;;;;;;;;;;4926141;28;20025;-61
2022/06/27 07:34:02;;;;;;;0.73;0.30;;;;;;;;;;4923392;29;20407;-61
2022/06/27 07:36:28;;;;;;;2.38;0.40;;;;;;;;;;4919299;28;20040;-61
2022/06/27 07:38:55;;;;;;;1.08;0.40;;;;;;;;;;4930613;29;20030;-61
2022/06/27 07:41:24;;;;;;;0.40;0.40;;;;;;;;;;4927243;29;20026;-61
2022/06/27 07:43:50;;;;;;;1.17;0.40;;;;;;;;;;4926110;29;20016;-61
2022/06/27 07:46:17;;;;;;;1.02;0.30;;;;;;;;;;4926956;29;20044;-61
2022/06/27 07:48:44;;;;;;;0.40;0.40;;;;;;;;;;4930330;29;20048;-61
2022/06/27 07:51:16;;;;;;;0.82;0.55;;;;;;;;;;4924192;29;20407;-61
2022/06/27 07:53:47;;;;;;;2.60;0.50;;;;;;;;;;4927879;29;20036;-61
2022/06/27 07:56:14;;;;;;;;;;;;;;;;;;4923238;29;20032;-60
2022/06/27 07:58:41;;;;;;;0.70;0.40;;;;;;;;;;4924178;29;19990;-62
2022/06/27 08:01:09;;;;;;;2.10;0.40;;;;;;;;;;4920152;29;20032;-62
2022/06/27 08:03:39;;;;;;;0.40;0.40;;;;;;;;;;4927768;29;20028;-62
2022/06/27 08:06:11;;;;;;;0.43;0.40;;;;;;;;;;4927545;29;20040;-61
2022/06/27 08:08:39;;;;;;;0.70;0.70;;;;;;;;;;4950905;28;20031;-61
2022/06/27 08:11:07;;;;;;;0.30;0.30;;;;;;;;;;4924644;29;20023;-62
2022/06/27 08:13:35;;;;;;;0.65;0.30;;;;;;;;;;4925826;29;20035;-62
2022/06/27 08:16:02;;;;;;;0.75;0.60;;;;;;;;;;4927853;29;20042;-61
2022/06/27 08:18:31;;;;;;;0.95;0.50;;;;;;;;;;4933184;29;20082;-60
2022/06/27 08:20:58;;;;;;;0.70;0.30;;;;;;;;;;4920997;29;20099;-62
2022/06/27 08:23:25;;;;;;;0.50;0.30;;;;;;;;;;4918331;29;20860;-62
2022/06/27 08:25:52;;;;;;;0.57;0.40;;;;;;;;;;4922594;29;20437;-62
2022/06/27 08:28:20;;;;;;;0.60;0.60;;;;;;;;;;4922322;28;20043;-62
2022/06/27 08:30:46;;;;;;;2.47;0.45;;;;;;;;;;4923375;29;20036;-62
2022/06/27 08:33:13;;;;;;;0.50;0.50;;;;;;;;;;4943173;29;20050;-62
2022/06/27 08:35:49;;;;;;;0.80;0.45;;;;;;;;;;4931150;29;20024;-62
2022/06/27 08:38:22;;;;;;;0.75;0.55;;;;;;;;;;4918570;29;20769;-62
2022/06/27 08:40:48;;;;;;;0.68;0.40;;;;;;;;;;4921799;29;20501;-62
2022/06/27 08:43:15;;;;;;;1.10;0.40;;;;;;;;;;4926916;29;20334;-62
2022/06/27 08:45:43;;;;;;;3.92;0.38;;;;;;;;;;4929996;29;20043;-62
2022/06/27 08:48:13;;;;;;;0.70;0.30;;;;;;;;;;4919023;29;20036;-62
2022/06/27 08:50:40;;;;;;;1.50;0.40;;;;;;;;;;4940367;29;20043;-62
2022/06/27 08:53:06;;;;;;;2.42;0.43;;;;;;;;;;4918227;29;20043;-62
2022/06/27 08:55:33;;;;;;;1.30;0.40;;;;;;;;;;4925068;29;20027;-60
2022/06/27 08:58:02;;;;;;;0.40;0.30;;;;;;;;;;4927438;29;20032;-62
2022/06/27 09:00:29;;;;;;;2.47;0.40;;;;;;;;;;4922433;29;20023;-61
2022/06/27 09:02:55;;;;;;;0.55;0.40;;;;;;;;;;4915855;29;20085;-61
2022/06/27 09:05:22;;;;;;;1.13;0.30;;;;;;;;;;4920858;29;20036;-62
2022/06/27 09:07:50;;;;;;;7.65;0.60;;;;;;;;;;4943580;29;20032;-62
2022/06/27 09:10:33;;;;;;;1.27;0.50;;;;;;;;;;4924013;28;20054;-62
2022/06/27 09:13:00;;;;;;;3.67;0.40;;;;;;;;;;4927651;29;20028;-62
2022/06/27 09:15:28;;;;;;;0.95;0.40;;;;;;;;;;4921580;29;20023;-61
2022/06/27 09:18:04;;;;;;;0.80;0.30;;;;;;;;;;4918296;29;20057;-61
2022/06/27 09:20:46;;;;;;;1.77;0.40;;;;;;;;;;4928852;29;20020;-61
2022/06/27 09:23:31;;;;;;;5.00;0.40;;;;;;;;;;4936983;29;20023;-61
2022/06/27 09:26:02;;;;;;;1.42;0.40;;;;;;;;;;4929475;29;20027;-61
2022/06/27 09:28:53;;;;;;;0.95;0.30;;;;;;;;;;4929513;29;20047;-61
2022/06/27 09:31:28;;;;;;;5.95;0.40;;;;;;;;;;4928109;29;20050;-61
2022/06/27 09:34:03;;;;;;;2.15;0.40;;;;;;;;;;4920411;29;20023;-61
2022/06/27 09:36:31;;;;;;;1.10;0.38;;;;;;;;;;4934394;29;20034;-61
2022/06/27 09:38:59;;;;;;;0.20;0.20;;;;;;;;;;4931777;29;20023;-61
2022/06/27 09:41:32;;;;;;;1.48;0.50;;;;;;;;;;4917087;29;20087;-60
2022/06/27 09:44:02;;;;;;;2.28;0.38;;;;;;;;;;4928908;29;20020;-61
2022/06/27 09:46:34;;;;;;;3.85;0.40;;;;;;;;;;4933361;29;20032;-60
2022/06/27 09:49:03;;;;;;;1.13;0.50;;;;;;;;;;4949151;28;20035;-60
2022/06/27 09:51:31;;;;;;;0.30;0.30;;;;;;;;;;4942769;29;20035;-60
2022/06/27 09:54:00;;;;;;;0.30;0.30;;;;;;;;;;4932150;29;20040;-61
2022/06/27 09:56:27;;;;;;;0.77;0.28;;;;;;;;;;4933434;29;20495;-61
2022/06/27 09:58:54;;;;;;;1.20;0.40;;;;;;;;;;4930967;29;20038;-60
2022/06/27 10:01:21;;;;;;;5.13;0.40;;;;;;;;;;4931707;29;20034;-60
2022/06/27 10:03:47;;;;;;;1.13;0.38;;;;;;;;;;4927948;29;20032;-61
2022/06/27 10:06:14;;;;;;;2.10;0.50;;;;;;;;;;4931232;29;20102;-61
2022/06/27 10:08:47;;;;;;;6.70;0.40;;;;;;;;;;4930918;29;20052;-61
2022/06/27 10:11:14;;;;;;;0.55;0.40;;;;;;;;;;4932303;29;20023;-61
2022/06/27 10:13:44;;;;;;;1.85;0.40;;;;;;;;;;4931658;29;20027;-61
2022/06/27 10:16:12;;;;;;;0.40;0.30;;;;;;;;;;4930380;29;20028;-61
2022/06/27 10:19:05;;;;;;;5.35;0.60;;;;;;;;;;4930954;29;20036;-61
2022/06/27 10:21:41;;;;;;;2.15;0.50;;;;;;;;;;4929783;29;20048;-61
2022/06/27 10:24:21;;;;;;;6.40;0.43;;;;;;;;;;4932242;29;20531;-61
2022/06/27 10:26:48;;;;;;;3.05;0.40;;;;;;;;;;4933235;29;20046;-61
2022/06/27 10:29:30;;;;;;;0.63;0.45;;;;;;;;;;4935374;29;20038;-61
2022/06/27 10:32:01;;;;;;;1.48;0.90;;;;;;;;;;4935723;29;20043;-61
2022/06/27 10:34:39;;;;;;;1.15;0.85;;;;;;;;;;4935276;29;20105;-61
2022/06/27 10:37:24;;;;;;;0.85;0.47;;;;;;;;;;4931441;29;20501;-61
2022/06/27 10:39:51;;;;;;;0.40;0.20;;;;;;;;;;4932643;29;20016;-61
2022/06/27 10:42:37;;;;;;;0.32;0.32;;;;;;;;;;4922122;29;20028;-61
2022/06/27 10:45:21;;;;;;;3.63;0.35;;;;;;;;;;4921132;29;20038;-61
2022/06/27 10:47:47;;;;;;;8.32;0.30;;;;;;;;;;4934825;29;20039;-61
2022/06/27 10:50:14;;;;;;;0.40;0.40;;;;;;;;;;4922285;29;20501;-61
2022/06/27 10:52:40;;;;;;;5.13;0.30;;;;;;;;;;4929929;29;20407;-61
2022/06/27 10:55:40;;;;;;;0.43;0.30;;;;;;;;;;4930012;29;20043;-61
2022/06/27 10:58:20;;;;;;;0.28;0.28;;;;;;;;;;4932634;29;20040;-61
2022/06/27 11:00:46;;;;;;;0.55;0.38;;;;;;;;;;4932924;29;20034;-61
2022/06/27 11:03:21;;;;;;;6.22;0.55;;;;;;;;;;4933215;29;20040;-61
2022/06/27 11:06:01;;;;;;;1.65;0.40;;;;;;;;;;4932370;29;20024;-61
2022/06/27 11:08:28;;;;;;;0.35;0.35;;;;;;;;;;4932670;29;20048;-61
2022/06/27 11:10:55;;;;;;;0.85;0.40;;;;;;;;;;4923781;29;20036;-61
2022/06/27 11:13:36;;;;;;;0.77;0.50;;;;;;;;;;4928875;29;20031;-61
2022/06/27 11:16:03;;;;;;;1.10;0.40;;;;;;;;;;4932060;29;20067;-61
2022/06/27 11:18:48;;;;;;;0.80;0.30;;;;;;;;;;4933101;29;20035;-61
2022/06/27 11:21:16;;;;;;;0.40;0.30;;;;;;;;;;4932619;29;20547;-61
2022/06/27 11:23:49;;;;;;;0.52;0.45;;;;;;;;;;4932043;29;20497;-61
2022/06/27 11:26:16;;;;;;;1.02;0.40;;;;;;;;;;4932800;29;20042;-61
2022/06/27 11:34:13;;;;;;;2.40;0.40;;;;;;;;;;4927327;29;20051;-61
2022/06/27 11:36:40;;;;;;;2.45;0.50;;;;;;;;;;4927392;29;20028;-61
2022/06/27 11:39:06;;;;;;;0.85;0.60;;;;;;;;;;4932790;29;20035;-61
2022/06/27 11:41:37;;;;;;;2.90;0.60;;;;;;;;;;4931035;29;20024;-61
2022/06/27 11:44:03;;;;;;;;;;;;;;;;;;4931189;29;20036;-61
2022/06/27 11:46:35;;;;;;;0.55;0.52;;;;;;;;;;4933476;29;19910;-61
2022/06/27 11:49:11;;;;;;;4.38;1.02;;;;;;;;;;4933378;29;20362;-61
2022/06/27 11:51:39;;;;;;;0.88;0.40;;;;;;;;;;4933243;29;20016;-61
2022/06/27 11:54:07;;;;;;;2.88;0.63;;;;;;;;;;4930959;29;20040;-60
2022/06/27 11:56:35;;;;;;;2.53;0.70;;;;;;;;;;4915769;29;20078;-60
2022/06/27 11:59:03;;;;;;;0.63;0.50;;;;;;;;;;4922443;29;20400;-60
2022/06/27 12:01:30;;;;;;;1.33;0.50;;;;;;;;;;4944741;28;20050;-60
2022/06/27 12:04:25;;;;;;;2.63;0.52;;;;;;;;;;4935851;28;20056;-60
2022/06/27 12:06:54;;;;;;;0.85;0.50;;;;;;;;;;4925812;29;20091;-60
2022/06/27 12:09:22;;;;;;;3.90;0.57;;;;;;;;;;4930445;29;20038;-60
2022/06/27 12:11:53;;;;;;;1.08;0.50;;;;;;;;;;4926931;29;20036;-60
2022/06/27 12:14:20;;;;;;;0.68;0.50;;;;;;;;;;4926270;29;20058;-60
2022/06/27 12:16:48;;;;;;;1.00;0.50;;;;;;;;;;4923302;29;20048;-60
2022/06/27 12:19:15;;;;;;;0.50;0.50;;;;;;;;;;4924172;29;20504;-60
2022/06/27 12:21:42;;;;;;;2.00;0.50;;;;;;;;;;4931212;29;20034;-60
2022/06/27 12:24:08;;;;;;;2.05;0.50;;;;;;;;;;4923371;29;20496;-59
2022/06/27 12:26:35;;;;;;;2.83;0.50;;;;;;;;;;4925456;29;20481;-60
2022/06/27 12:29:02;;;;;;;0.45;0.45;;;;;;;;;;4932097;29;20590;-60
2022/06/27 12:31:28;;;;;;;1.88;0.43;;;;;;;;;;4931973;29;20027;-60
2022/06/27 12:33:54;;;;;;;1.55;0.40;;;;;;;;;;4930515;29;20043;-60
2022/06/27 12:36:21;;;;;;;2.08;0.40;;;;;;;;;;4925573;29;20024;-60
2022/06/27 12:38:47;;;;;;;1.55;0.45;;;;;;;;;;4923162;29;20095;-60
2022/06/27 12:41:15;;;;;;;0.60;0.40;;;;;;;;;;4920088;29;20032;-60
2022/06/27 12:43:42;;;;;;;0.43;0.30;;;;;;;;;;4923488;29;20036;-60
2022/06/27 12:46:08;;;;;;;1.40;0.30;;;;;;;;;;4924130;29;20480;-60
2022/06/27 12:48:37;;;;;;;0.85;0.30;;;;;;;;;;4932138;29;20032;-60
2022/06/27 12:51:03;;;;;;;0.47;0.30;;;;;;;;;;4924249;29;20528;-60
2022/06/27 12:53:29;;;;;;;0.43;0.32;;;;;;;;;;4916759;29;20050;-60
2022/06/27 12:55:57;;;;;;;1.45;0.40;;;;;;;;;;4920946;29;20054;-60
2022/06/27 12:58:24;;;;;;;2.38;0.40;;;;;;;;;;4925734;29;20032;-60
2022/06/27 13:00:50;;;;;;;0.40;0.40;;;;;;;;;;4927696;29;20024;-59
2022/06/27 13:03:17;;;;;;;1.40;0.30;;;;;;;;;;4926642;29;20042;-60
2022/06/27 13:05:43;;;;;;;0.30;0.30;;;;;;;;;;4917459;29;20032;-59
2022/06/27 13:08:09;;;;;;;0.47;0.30;;;;;;;;;;4929107;29;20040;-59
2022/06/27 13:10:36;;;;;;;2.05;0.60;;;;;;;;;;4931068;29;20050;-59
2022/06/27 13:13:03;;;;;;;2.58;0.45;;;;;;;;;;4927331;29;20048;-59
2022/06/27 13:15:31;;;;;;;3.00;0.50;;;;;;;;;;4926920;29;20051;-59
2022/06/27 13:17:58;;;;;;;2.58;0.50;;;;;;;;;;4918031;29;20346;-60
2022/06/27 13:20:25;;;;;;;0.30;0.30;;;;;;;;;;4933021;29;20038;-59
2022/06/27 13:22:52;;;;;;;4.68;0.30;;;;;;;;;;4918720;29;20035;-60
2022/06/27 13:25:18;;;;;;;2.55;0.22;;;;;;;;;;4921944;29;20020;-60
2022/06/27 13:27:45;;;;;;;1.65;0.35;;;;;;;;;;4926167;29;20031;-59
2022/06/27 13:30:12;;;;;;;0.38;0.30;;;;;;;;;;4920175;29;20024;-59
2022/06/27 13:32:39;;;;;;;1.10;0.40;;;;;;;;;;4917426;29;20036;-59
2022/06/27 13:35:06;;;;;;;3.97;0.50;;;;;;;;;;4917667;29;20408;-59
2022/06/27 13:37:33;;;;;;;5.57;2.70;;;;;;;;;;4927654;29;20058;-59
2022/06/27 13:39:59;;;;;;;11.38;6.03;;;;;;;;;;4928342;29;20412;-59
2022/06/27 13:42:26;;;;;;;16.73;7.25;;;;;;;;;;4920448;29;20480;-60
2022/06/27 13:44:53;;;;;;;8.05;3.28;;;;;;;;;;4930634;29;20460;-59
2022/06/27 13:47:20;;;;;;;0.93;0.60;;;;;;;;;;4918281;29;20385;-60
2022/06/27 13:49:54;;;;;;;2.53;0.57;;;;;;;;;;4921139;29;20032;-59
2022/06/27 13:52:20;;;;;;;2.20;1.40;;;;;;;;;;4921338;29;20028;-62
2022/06/27 13:54:47;;;;;;;3.13;1.25;;;;;;;;;;4917173;29;20153;-62
2022/06/27 13:57:13;;;;;;;2.88;1.52;;;;;;;;;;4932014;29;20027;-62
2022/06/27 13:59:40;;;;;;;3.83;0.60;;;;;;;;;;4920410;29;20036;-59
2022/06/27 14:02:07;;;;;;;3.63;0.50;;;;;;;;;;4923622;29;20036;-62
2022/06/27 14:04:34;;;;;;;0.82;0.50;;;;;;;;;;4932616;29;20413;-59
2022/06/27 14:09:46;;;;;;;3.05;0.32;;;;;;;;;;4932449;29;20425;-61
2022/06/27 14:12:13;;;;;;;0.38;0.30;;;;;;;;;;4929274;29;20020;-59
2022/06/27 14:14:39;;;;;;;3.42;0.40;;;;;;;;;;4923363;29;20036;-59
2022/06/27 14:17:07;;;;;;;1.85;0.30;;;;;;;;;;4922932;29;20052;-59
2022/06/27 14:19:34;;;;;;;0.57;0.30;;;;;;;;;;4926643;29;20460;-61
2022/06/27 14:22:03;;;;;;;0.35;0.20;;;;;;;;;;4923952;29;20051;-61
2022/06/27 14:24:30;;;;;;;0.47;0.47;;;;;;;;;;4928238;29;20436;-61
2022/06/27 14:26:59;;;;;;;0.50;0.50;;;;;;;;;;4933973;29;20074;-60
2022/06/27 14:29:26;;;;;;;8.85;1.05;;;;;;;;;;4934964;29;20035;-61
2022/06/27 14:31:52;;;;;;;2.13;0.70;;;;;;;;;;4930489;29;20779;-60
2022/06/27 14:34:19;;;;;;;4.78;0.50;;;;;;;;;;4928482;29;20042;-60
2022/06/27 14:36:45;;;;;;;1.08;0.70;;;;;;;;;;4934479;29;20024;-61
2022/06/27 14:39:12;;;;;;;0.40;0.40;;;;;;;;;;4934214;29;20044;-61
2022/06/27 14:41:43;;;;;;;1.42;0.60;;;;;;;;;;4935121;29;20028;-61
2022/06/27 14:44:10;;;;;;;2.45;0.55;;;;;;;;;;4931222;29;20042;-61
2022/06/27 14:46:37;;;;;;;1.13;0.40;;;;;;;;;;4932224;29;20036;-61
2022/06/27 14:49:03;;;;;;;0.90;0.40;;;;;;;;;;4934098;29;20373;-61
2022/06/27 14:51:31;;;;;;;0.40;0.40;;;;;;;;;;4934748;29;20519;-61
2022/06/27 14:53:58;;;;;;;0.38;0.32;;;;;;;;;;4933072;29;20016;-61
2022/06/27 14:56:25;;;;;;;0.80;0.40;;;;;;;;;;4934855;29;20500;-60
2022/06/27 14:58:51;;;;;;;1.27;0.40;;;;;;;;;;4924308;29;20032;-61
2022/06/27 15:01:18;;;;;;;0.30;0.30;;;;;;;;;;4923590;29;20158;-61
2022/06/27 15:03:44;;;;;;;1.00;0.55;;;;;;;;;;4924883;29;20480;-61
2022/06/27 15:06:10;;;;;;;0.68;0.40;;;;;;;;;;4920742;29;20024;-61
2022/06/27 15:08:41;;;;;;;0.63;0.50;;;;;;;;;;4933803;29;20530;-61
2022/06/27 15:13:56;;;;;;;2.17;0.50;;;;;;;;;;4925245;29;20036;-60
2022/06/27 15:16:23;;;;;;;1.95;0.30;;;;;;;;;;4924683;29;20424;-61
2022/06/27 15:18:49;;;;;;;1.10;0.45;;;;;;;;;;4926542;29;20019;-61
2022/06/27 15:21:16;;;;;;;0.50;0.50;;;;;;;;;;4922920;29;20032;-60
2022/06/27 15:23:42;;;;;;;0.95;0.40;;;;;;;;;;4922239;29;20499;-61
2022/06/27 15:26:08;;;;;;;0.28;0.28;;;;;;;;;;4923378;29;20043;-61
2022/06/27 15:28:35;;;;;;;0.40;0.40;;;;;;;;;;4926608;29;20047;-61
2022/06/27 15:31:01;;;;;;;1.52;0.50;;;;;;;;;;4923624;29;20392;-61
2022/06/27 15:33:27;;;;;;;2.28;0.50;;;;;;;;;;4935400;29;20037;-61
2022/06/27 15:35:54;;;;;;;3.20;0.55;;;;;;;;;;4920305;29;20037;-61
2022/06/27 15:38:20;;;;;;;1.55;0.70;;;;;;;;;;4921543;29;20028;-61
2022/06/27 15:40:46;;;;;;;2.55;0.50;;;;;;;;;;4924695;29;20384;-61
2022/06/27 15:43:13;;;;;;;0.68;0.40;;;;;;;;;;4925195;29;20024;-61
2022/06/27 15:45:40;;;;;;;0.45;0.45;;;;;;;;;;4924399;29;20023;-61
2022/06/27 15:48:06;;;;;;;1.30;0.40;;;;;;;;;;4921854;29;20024;-61
2022/06/27 15:50:32;;;;;;;2.47;0.60;;;;;;;;;;4920677;29;20036;-61
2022/06/27 15:52:59;;;;;;;0.40;0.40;;;;;;;;;;4931783;29;20047;-61
2022/06/27 15:55:25;;;;;;;0.75;0.50;;;;;;;;;;4928023;29;20036;-61
2022/06/27 15:57:51;;;;;;;5.45;0.30;;;;;;;;;;4924535;29;20035;-61
2022/06/27 16:00:18;;;;;;;0.50;0.50;;;;;;;;;;4922903;29;20038;-61
2022/06/27 16:02:45;;;;;;;2.30;0.52;;;;;;;;;;4919750;29;20028;-61
2022/06/27 16:05:11;;;;;;;1.15;0.70;;;;;;;;;;4931723;29;20032;-61
2022/06/27 16:07:38;;;;;;;3.10;0.60;;;;;;;;;;4926066;29;20024;-60
2022/06/27 16:10:06;;;;;;;4.78;0.50;;;;;;;;;;4923976;29;20090;-60
2022/06/27 16:12:32;;;;;;;0.65;0.60;;;;;;;;;;4924234;29;20503;-61
2022/06/27 16:14:58;;;;;;;0.82;0.40;;;;;;;;;;4920034;29;20038;-61
2022/06/27 16:17:25;;;;;;;3.17;0.70;;;;;;;;;;4920138;29;20501;-60
2022/06/27 16:19:51;;;;;;;1.02;0.45;;;;;;;;;;4924046;29;20489;-60
2022/06/27 16:22:18;;;;;;;2.85;0.65;;;;;;;;;;4923950;29;20125;-61
2022/06/27 16:24:44;;;;;;;0.68;0.50;;;;;;;;;;4923388;29;20026;-61
2022/06/27 16:27:11;;;;;;;0.70;0.40;;;;;;;;;;4921692;29;20028;-61
2022/06/27 16:29:39;;;;;;;2.10;0.82;;;;;;;;;;4919467;29;20032;-61
2022/06/27 16:32:06;;;;;;;2.58;0.57;;;;;;;;;;4923054;29;20036;-60
2022/06/27 16:34:32;;;;;;;1.67;0.60;;;;;;;;;;4923684;29;20020;-61
2022/06/27 16:36:59;;;;;;;0.80;0.45;;;;;;;;;;4923727;29;20024;-61
2022/06/27 16:39:25;;;;;;;0.50;0.50;;;;;;;;;;4923070;29;20389;-61
2022/06/27 16:44:36;;;;;;;0.75;0.50;;;;;;;;;;4934674;29;20028;-61
2022/06/27 16:47:03;;;;;;;2.20;0.52;;;;;;;;;;4922865;29;20024;-61
2022/06/27 16:49:29;;;;;;;0.47;0.43;;;;;;;;;;4923682;29;20040;-60
2022/06/27 16:51:56;;;;;;;0.50;0.50;;;;;;;;;;4923647;29;20129;-61
2022/06/27 16:54:22;;;;;;;1.38;0.47;;;;;;;;;;4917243;29;20036;-61
2022/06/27 16:56:50;;;;;;;2.53;0.47;;;;;;;;;;4933220;29;20032;-60
2022/06/27 16:59:17;;;;;;;2.03;0.60;;;;;;;;;;4930579;29;20030;-60
2022/06/27 17:01:43;;;;;;;5.70;0.50;;;;;;;;;;4924635;29;20503;-61
2022/06/27 17:04:09;;;;;;;3.35;0.52;;;;;;;;;;4923742;29;20312;-61
2022/06/27 17:06:35;;;;;;;0.90;0.55;;;;;;;;;;4917553;29;20028;-61
2022/06/27 17:09:02;;;;;;;2.08;0.50;;;;;;;;;;4933546;29;20487;-61
2022/06/27 17:11:28;;;;;;;0.55;0.43;;;;;;;;;;4930699;29;20028;-61
2022/06/27 17:13:55;;;;;;;0.57;0.50;;;;;;;;;;4922878;29;20036;-60
2022/06/27 17:16:21;;;;;;;0.55;0.52;;;;;;;;;;4923202;29;20036;-61
2022/06/27 17:18:47;;;;;;;1.10;1.05;;;;;;;;;;4923202;29;20035;-61
2022/06/27 17:21:14;;;;;;;0.68;0.60;;;;;;;;;;4919280;29;20032;-61
2022/06/27 17:23:42;;;;;;;1.00;0.47;;;;;;;;;;4932304;29;20031;-62
2022/06/27 17:26:09;;;;;;;1.73;0.63;;;;;;;;;;4921271;29;20504;-61
2022/06/27 17:28:35;;;;;;;1.10;0.57;;;;;;;;;;4923241;29;20024;-60
2022/06/27 17:31:01;;;;;;;1.10;0.65;;;;;;;;;;4923244;29;20040;-61
2022/06/27 17:33:28;;;;;;;1.02;0.50;;;;;;;;;;4923188;29;20024;-61
2022/06/27 17:35:54;;;;;;;1.50;0.65;;;;;;;;;;4921968;29;20102;-61
2022/06/27 17:38:20;;;;;;;2.17;0.50;;;;;;;;;;4924282;29;20039;-61
2022/06/27 17:40:47;;;;;;;2.22;0.43;;;;;;;;;;4926803;29;20016;-61
2022/06/27 17:43:13;;;;;;;1.80;0.60;;;;;;;;;;4926008;29;20058;-61
2022/06/27 17:45:39;;;;;;;1.77;0.63;;;;;;;;;;4933653;29;20034;-60
2022/06/27 17:48:06;;;;;;;1.10;0.63;;;;;;;;;;4937694;29;20453;-60
2022/06/27 17:50:33;;;;;;;0.68;0.57;;;;;;;;;;4922931;29;20040;-60
2022/06/27 17:53:01;;;;;;;1.73;0.55;;;;;;;;;;4933952;29;20034;-60
2022/06/27 17:55:27;;;;;;;0.98;0.50;;;;;;;;;;4929630;29;20043;-61
2022/06/27 17:57:54;;;;;;;0.55;0.50;;;;;;;;;;4927079;29;20078;-61
2022/06/27 18:00:20;;;;;;;1.13;0.60;;;;;;;;;;4922628;29;20492;-61
2022/06/27 18:02:47;;;;;;;1.20;0.60;;;;;;;;;;4936527;29;20028;-60
2022/06/27 18:05:14;;;;;;;2.00;0.50;;;;;;;;;;4924541;29;20036;-60
2022/06/27 18:07:40;;;;;;;1.73;0.60;;;;;;;;;;4926576;29;20032;-60
2022/06/27 18:10:08;;;;;;;1.60;0.60;;;;;;;;;;4926134;29;20040;-60
2022/06/27 18:12:34;;;;;;;2.10;0.65;;;;;;;;;;4926654;29;20489;-61
2022/06/27 18:15:01;;;;;;;2.42;0.80;;;;;;;;;;4922735;29;20157;-60
2022/06/27 18:17:27;;;;;;;1.70;0.60;;;;;;;;;;4922464;29;20051;-61
2022/06/27 18:19:54;;;;;;;2.75;0.95;;;;;;;;;;4933476;29;20144;-61
2022/06/27 18:22:20;;;;;;;1.88;0.80;;;;;;;;;;4930430;29;20046;-60
2022/06/27 18:24:47;;;;;;;2.20;0.90;;;;;;;;;;4926002;29;20016;-60
2022/06/27 18:27:13;;;;;;;1.98;0.70;;;;;;;;;;4924532;29;20067;-61
2022/06/27 18:29:41;;;;;;;2.95;0.95;;;;;;;;;;4921765;29;20519;-61
2022/06/27 18:32:11;;;;;;;2.70;0.80;;;;;;;;;;4922710;29;20059;-61
2022/06/27 18:34:38;;;;;;;2.83;0.70;;;;;;;;;;4926160;29;20064;-61
2022/06/27 18:37:04;;;;;;;1.38;0.70;;;;;;;;;;4926077;29;20024;-61
2022/06/27 18:39:32;;;;;;;0.60;0.60;;;;;;;;;;4919065;29;20030;-61
2022/06/27 18:41:58;;;;;;;4.25;0.90;;;;;;;;;;4922091;29;20054;-60
2022/06/27 18:44:25;;;;;;;2.05;0.90;;;;;;;;;;4933500;29;20030;-60
2022/06/27 18:46:52;;;;;;;1.98;0.90;;;;;;;;;;4925119;29;20127;-61
2022/06/27 18:49:18;;;;;;;3.05;1.10;;;;;;;;;;4926041;29;20037;-61
2022/06/27 18:51:45;;;;;;;4.43;0.93;;;;;;;;;;4925903;29;20465;-60
2022/06/27 18:54:11;;;;;;;1.88;0.98;;;;;;;;;;4923085;29;20488;-60
2022/06/27 18:56:38;;;;;;;1.15;0.90;;;;;;;;;;4921585;29;20437;-61
2022/06/27 18:59:04;;;;;;;1.30;0.60;;;;;;;;;;4924615;29;20066;-60
2022/06/27 19:01:31;;;;;;;2.78;0.98;;;;;;;;;;4925771;29;20021;-61
2022/06/27 19:03:58;;;;;;;1.00;0.90;;;;;;;;;;4925622;29;20027;-60
2022/06/27 19:06:24;;;;;;;2.20;0.80;;;;;;;;;;4925144;29;20062;-61
2022/06/27 19:08:51;;;;;;;3.10;1.10;;;;;;;;;;4920807;29;20032;-60
2022/06/27 19:11:17;;;;;;;1.63;0.73;;;;;;;;;;4922990;29;20022;-60
2022/06/27 19:13:44;;;;;;;0.93;0.88;;;;;;;;;;4925562;29;20038;-61
2022/06/27 19:16:11;;;;;;;2.35;0.98;;;;;;;;;;4925141;29;20035;-61
2022/06/27 19:18:38;;;;;;;4.13;1.02;;;;;;;;;;4922151;29;20028;-60
2022/06/27 19:21:04;;;;;;;3.80;0.90;;;;;;;;;;4936084;29;20031;-60
2022/06/27 19:23:31;;;;;;;2.33;0.82;;;;;;;;;;4920710;29;20028;-61
2022/06/27 19:25:58;;;;;;;3.25;1.10;;;;;;;;;;4925055;29;20039;-61
2022/06/27 19:28:25;;;;;;;2.22;1.15;;;;;;;;;;4925618;29;20036;-61
2022/06/27 19:30:51;;;;;;;1.95;0.90;;;;;;;;;;4926038;29;20036;-61
2022/06/27 19:33:18;;;;;;;2.28;1.00;;;;;;;;;;4924066;29;20034;-60
2022/06/27 19:35:46;;;;;;;8.73;1.30;;;;;;;;;;4920492;29;20032;-61
2022/06/27 19:38:13;;;;;;;1.83;1.23;;;;;;;;;;4923408;29;20036;-61
2022/06/27 19:40:40;;;;;;;3.20;0.80;;;;;;;;;;4925125;29;20040;-61
2022/06/27 19:43:07;;;;;;;2.80;1.00;;;;;;;;;;4925090;29;20032;-61
2022/06/27 19:45:34;;;;;;;6.78;2.10;;;;;;;;;;4924883;29;20488;-60
2022/06/27 19:48:01;;;;;;;5.72;2.42;;;;;;;;;;4921294;29;20026;-61
2022/06/27 19:50:27;;;;;;;6.18;2.05;;;;;;;;;;4920549;29;20114;-61
2022/06/27 19:52:53;;;;;;;4.97;1.58;;;;;;;;;;4931209;29;20023;-61
2022/06/27 19:55:20;;;;;;;6.57;1.10;;;;;;;;;;4929269;29;20046;-60
2022/06/27 19:57:46;;;;;;;3.10;1.20;;;;;;;;;;4922556;29;20030;-61
2022/06/27 20:00:13;;;;;;;8.02;1.35;;;;;;;;;;4935445;29;20160;-60
2022/06/27 20:02:40;;;;;;;5.43;1.27;;;;;;;;;;4920065;29;20485;-60
2022/06/27 20:05:07;;;;;;;4.28;1.25;;;;;;;;;;4922925;29;20028;-60
2022/06/27 20:07:34;;;;;;;5.07;1.30;;;;;;;;;;4924618;29;20032;-61
2022/06/27 20:10:06;;;;;;;4.80;1.30;;;;;;;;;;4924474;29;20497;-61
2022/06/27 20:12:40;;;;;;;2.78;1.35;;;;;;;;;;4924465;29;20026;-61
2022/06/27 20:15:07;;;;;;;6.93;1.50;;;;;;;;;;4921547;29;20019;-60
2022/06/27 20:17:34;;;;;;;4.22;1.17;;;;;;;;;;4918546;29;20432;-60
2022/06/27 20:20:01;;;;;;;5.03;1.40;;;;;;;;;;4931122;29;20035;-61
2022/06/27 20:22:29;;;;;;;3.13;1.17;;;;;;;;;;4927613;29;20039;-60
2022/06/27 20:24:57;;;;;;;5.70;1.55;;;;;;;;;;4923913;29;20024;-61
2022/06/27 20:27:24;;;;;;;3.28;1.25;;;;;;;;;;4923155;29;20034;-60
2022/06/27 20:29:50;;;;;;;4.18;1.42;;;;;;;;;;4919389;29;20374;-60
2022/06/27 20:32:16;;;;;;;9.60;1.90;;;;;;;;;;4921355;29;20087;-60
2022/06/27 20:34:43;;;;;;;3.38;1.23;;;;;;;;;;4923576;29;20378;-61
2022/06/27 20:37:09;;;;;;;3.35;1.10;;;;;;;;;;4924969;29;20373;-61
2022/06/27 20:39:35;;;;;;;5.88;1.50;;;;;;;;;;4934146;29;20015;-61
2022/06/27 20:42:02;;;;;;;4.88;1.45;;;;;;;;;;4920254;29;20028;-60
2022/06/27 20:44:28;;;;;;;4.35;1.60;;;;;;;;;;4919549;29;20478;-60
2022/06/27 20:46:54;;;;;;;5.88;1.30;;;;;;;;;;4930525;29;20492;-60
2022/06/27 20:49:21;;;;;;;5.75;1.33;;;;;;;;;;4927503;29;20037;-61
2022/06/27 20:51:47;;;;;;;4.78;1.50;;;;;;;;;;4923963;29;20027;-61
2022/06/27 20:54:13;;;;;;;3.85;1.30;;;;;;;;;;4921446;29;20035;-61
2022/06/27 20:56:40;;;;;;;4.10;1.50;;;;;;;;;;4919059;29;20032;-60
2022/06/27 20:59:08;;;;;;;3.95;1.10;;;;;;;;;;4922153;28;20360;-60
2022/06/27 21:01:34;;;;;;;8.65;1.25;;;;;;;;;;4923548;29;20039;-61
2022/06/27 21:04:01;;;;;;;4.97;1.20;;;;;;;;;;4923510;29;20036;-60
2022/06/27 21:06:27;;;;;;;5.65;1.30;;;;;;;;;;4923155;29;20059;-60
2022/06/27 21:11:48;;;;;;;6.63;1.55;;;;;;;;;;4934493;29;20024;-60
2022/06/27 21:14:18;;;;;;;2.78;1.38;;;;;;;;;;4921062;29;20047;-60
2022/06/27 21:16:45;;;;;;;3.45;1.40;;;;;;;;;;4928855;29;20056;-61
2022/06/27 21:19:11;;;;;;;4.45;1.20;;;;;;;;;;4927144;29;20489;-61
2022/06/27 21:21:38;;;;;;;6.07;1.55;;;;;;;;;;4923328;29;20016;-60